TimeMST,TemperatureF,Dew PointF,Humidity,Sea Level PressureIn,VisibilityMPH,Wind Direction,Wind SpeedMPH,Gust SpeedMPH,PrecipitationIn,Events,Conditions,WindDirDegrees,DateUTC
12:58 AM,31.6,1.4,28,30.22,10.0,Calm,Calm,-,N/A,,Clear,0,2013-02-03 07:58:00
1:58 AM,34.7,4.3,28,30.19,10.0,Calm,Calm,-,N/A,,Clear,0,2013-02-03 08:58:00
2:58 AM,35.6,6.4,30,30.19,10.0,Calm,Calm,-,N/A,,Clear,0,2013-02-03 09:58:00
3:58 AM,30.2,4.8,34,30.19,10.0,ENE,6.9,-,N/A,,Clear,70,2013-02-03 10:58:00
4:58 AM,31.3,5.4,34,30.17,10.0,ENE,8.1,-,N/A,,Clear,60,2013-02-03 11:58:00
5:58 AM,31.3,5.5,34,30.19,10.0,West,2.3,-,N/A,,Clear,280,2013-02-03 12:58:00
6:58 AM,29.8,5.4,35,30.19,10.0,ENE,5.8,-,N/A,,Clear,60,2013-02-03 13:58:00
7:58 AM,34.5,7.7,33,30.19,10.0,NNE,1.2,-,N/A,,Clear,30,2013-02-03 14:58:00
8:58 AM,42.6,12.0,29,30.17,10.0,Calm,Calm,-,N/A,,Clear,0,2013-02-03 15:58:00
9:58 AM,46.9,13.8,26,30.17,10.0,Calm,Calm,-,N/A,,Mostly Cloudy,0,2013-02-03 16:58:00
10:58 AM,50.9,13.6,23,30.15,10.0,WNW,2.3,-,N/A,,Scattered Clouds,290,2013-02-03 17:58:00
11:58 AM,52.0,14.4,22,30.09,10.0,Calm,Calm,-,N/A,,Partly Cloudy,0,2013-02-03 18:58:00
12:58 PM,55.6,14.9,20,30.03,10.0,NE,1.2,-,N/A,,Partly Cloudy,40,2013-02-03 19:58:00
1:58 PM,56.7,15.1,20,29.98,10.0,East,2.3,-,N/A,,Clear,80,2013-02-03 20:58:00
2:58 PM,59.7,15.1,17,29.94,10.0,SW,2.3,-,N/A,,Partly Cloudy,230,2013-02-03 21:58:00
3:58 PM,59.4,14.9,18,29.94,10.0,Calm,Calm,-,N/A,,Clear,0,2013-02-03 22:58:00
4:58 PM,58.6,15.4,18,29.92,10.0,South,4.6,-,N/A,,Clear,170,2013-02-03 23:58:00
5:58 PM,56.5,16.2,21,29.93,10.0,West,3.5,-,N/A,,Clear,260,2013-02-04 00:58:00
6:58 PM,51.4,17.8,26,29.95,10.0,Variable,1.2,-,N/A,,Clear,0,2013-02-04 01:58:00
7:58 PM,51.6,16.2,25,29.94,10.0,ENE,4.6,-,N/A,,Clear,70,2013-02-04 02:58:00
8:58 PM,54.0,28.9,38,29.93,10.0,SSW,9.2,-,N/A,,Clear,200,2013-02-04 03:58:00
9:58 PM,49.8,31.8,50,29.92,10.0,SE,8.1,-,N/A,,Clear,130,2013-02-04 04:58:00
10:58 PM,48.6,31.8,52,29.89,10.0,ESE,8.1,-,N/A,,Partly Cloudy,120,2013-02-04 05:58:00
11:58 PM,47.8,31.1,52,29.89,10.0,SE,2.3,-,N/A,,Overcast,140,2013-02-04 06:58:00